Eaglescliffe, United Kingdom
Current Conditions -  °F | °C
As of 5:50 AM on Friday 28 Nov 2014 (Local Time) from EGNV Reporting Station
Broken Clouds Broken Clouds  
Wind Chill: 44°   Ceiling: 1200
Heat Index: 46°   Visibility: 5mi
Dew Point: 45°   Wind: 6mph
Humidity: 93%   Direction: 50°NE
Pressure: 29.68"   Gusts: NA
Location:  54.53°N, 1.35°W
Report Text: EGNV 280550Z 05005KT 8000 FEW009 BKN012 08/07 Q1005
Loading
Personal Weather Stations






























Interactive Weather Map New forecast layout! Learn more

10-Day Weather Forecast

Advertisements
Track Severe Weather on mobile